Terminal Aerodrome Forecast
Issued by NWS

Home | Current Version | Previous Version | Text Only | Print | Product List | Glossary On
Versions: 1 2 3 4 5 6 7 8 9 10 11 12 13 14 15 16 17 18 19 20 21 22 23 24 25
000
FTUS43 KLSX 301400 AAA
TAFCPS
TAF AMD
KCPS 301400Z 3014/0112 13012G20KT 6SM -SHRA VCTS BKN005 OVC030CB
     FM301500 13008KT 3SM SHRA OVC015
     FM301800 16013G24KT P6SM OVC025
      TEMPO 3018/3021 3SM TSRA OVC015CB
     FM302100 17016G24KT 4SM SHRA OVC035
     FM010000 20012G19KT P6SM BKN025
     FM010600 19010KT P6SM BKN070=

USA.gov is the U.S. government's official web portal to all federal, state and local government web resources and services.